createdAt,value
2023-03-23T15:59:47.720Z,15.59
2023-03-23T16:02:22.559Z,15.51
2023-03-23T16:04:51.086Z,15.44
2023-03-23T16:07:23.883Z,15.36
2023-03-23T16:09:51.837Z,15.28
2023-03-23T16:12:20.993Z,15.21
2023-03-23T16:14:50.259Z,15.15
2023-03-23T16:17:20.042Z,15.10
2023-03-23T16:19:50.242Z,15.07
2023-03-23T16:22:18.737Z,15.02
2023-03-23T16:24:50.337Z,14.97
2023-03-23T16:27:18.610Z,14.94
2023-03-23T16:30:03.218Z,14.90
2023-03-23T16:35:02.199Z,14.83
2023-03-23T16:37:33.726Z,14.78
2023-03-23T16:40:02.392Z,14.74
2023-03-23T16:42:31.059Z,14.72
2023-03-23T16:45:00.417Z,14.70
2023-03-23T16:47:28.573Z,14.66
2023-03-23T16:50:06.769Z,14.62
2023-03-23T16:52:35.295Z,14.57
2023-03-23T16:55:16.606Z,14.54
2023-03-23T16:57:44.987Z,14.52
2023-03-23T17:00:15.540Z,14.49
2023-03-23T17:02:44.405Z,14.45
2023-03-23T17:05:13.576Z,14.43
2023-03-23T17:07:42.150Z,14.39
2023-03-23T17:10:16.272Z,14.34
2023-03-23T17:12:46.138Z,14.30
2023-03-23T17:15:15.742Z,14.25
2023-03-23T17:17:44.579Z,14.20
2023-03-23T17:20:13.641Z,14.15
2023-03-23T17:22:41.901Z,14.10
2023-03-23T17:25:11.487Z,14.04
2023-03-23T17:27:39.843Z,14.00
2023-03-23T17:30:09.412Z,13.95
2023-03-23T17:32:39.345Z,13.89
2023-03-23T17:35:08.155Z,13.84
2023-03-23T17:37:38.324Z,13.79
2023-03-23T17:40:10.360Z,13.75
2023-03-23T17:42:38.676Z,13.71
2023-03-23T17:45:07.990Z,13.67
2023-03-23T17:47:36.628Z,13.64
2023-03-23T17:50:11.526Z,13.58
2023-03-23T17:52:43.703Z,13.52
2023-03-23T17:55:12.160Z,13.46
2023-03-23T17:57:44.723Z,13.41
2023-03-23T18:00:13.477Z,13.37
2023-03-23T18:02:42.058Z,13.33
2023-03-23T18:05:11.168Z,13.30
2023-03-23T18:07:39.803Z,13.27
2023-03-23T18:10:13.142Z,13.25
2023-03-23T18:12:42.527Z,13.22
2023-03-23T18:15:11.107Z,13.16
2023-03-23T18:17:39.463Z,13.10
2023-03-23T18:20:08.795Z,13.07
2023-03-23T18:22:36.997Z,13.01
2023-03-23T18:25:06.070Z,12.97
2023-03-23T18:27:34.393Z,12.95
2023-03-23T18:30:04.102Z,12.93
2023-03-23T18:32:36.321Z,12.91
2023-03-23T18:35:06.008Z,12.88
2023-03-23T18:37:35.451Z,12.83
2023-03-23T18:40:05.831Z,12.79
2023-03-23T18:42:34.381Z,12.76
2023-03-23T18:45:03.190Z,12.72
2023-03-23T18:47:31.507Z,12.69
2023-03-23T18:49:59.799Z,12.64
2023-03-23T18:52:30.886Z,12.60
2023-03-23T18:54:59.895Z,12.55
2023-03-23T18:57:28.540Z,12.52
2023-03-23T18:59:57.278Z,12.49
2023-03-23T19:02:25.662Z,12.45
2023-03-23T19:04:54.174Z,12.41
2023-03-23T19:07:22.330Z,12.35
2023-03-23T19:09:50.518Z,12.29
2023-03-23T19:12:23.322Z,12.26
2023-03-23T19:14:52.581Z,12.20
2023-03-23T19:17:20.802Z,12.16
2023-03-23T19:19:52.620Z,12.12
2023-03-23T19:22:21.235Z,12.09
2023-03-23T19:24:49.386Z,12.09
2023-03-23T19:27:21.024Z,12.08
2023-03-23T19:29:50.092Z,12.08
2023-03-23T19:32:21.104Z,12.07
2023-03-23T19:34:51.224Z,12.06
2023-03-23T19:37:20.526Z,12.05
2023-03-23T19:39:50.052Z,12.05
2023-03-23T19:42:20.551Z,12.04
2023-03-23T19:44:50.879Z,12.03
2023-03-23T19:47:19.590Z,12.01
2023-03-23T19:49:49.238Z,12.01
2023-03-23T19:52:18.884Z,12.01
2023-03-23T19:54:48.038Z,12.00
2023-03-23T19:57:17.836Z,11.99
2023-03-23T19:59:46.829Z,11.99
2023-03-23T20:02:15.311Z,11.97
2023-03-23T20:04:50.197Z,11.94
2023-03-23T20:07:26.516Z,11.92
2023-03-23T20:09:55.146Z,11.91
2023-03-23T20:12:24.886Z,11.91
2023-03-23T20:14:53.351Z,11.91
2023-03-23T20:17:21.683Z,11.91
2023-03-23T20:19:56.783Z,11.91
2023-03-23T20:22:24.920Z,11.89
2023-03-23T20:24:53.032Z,11.87
2023-03-23T20:27:21.247Z,11.83
2023-03-23T20:29:49.516Z,11.81
2023-03-23T20:32:17.783Z,11.78
2023-03-23T20:34:49.537Z,11.76
2023-03-23T20:37:20.578Z,11.74
2023-03-23T20:39:50.298Z,11.73
2023-03-23T20:42:18.512Z,11.69
2023-03-23T20:44:49.124Z,11.67
2023-03-23T20:47:17.577Z,11.65
2023-03-23T20:49:52.776Z,11.62
2023-03-23T20:52:23.585Z,11.58
2023-03-23T20:54:55.071Z,11.56
2023-03-23T20:57:23.502Z,11.53
2023-03-23T20:59:53.554Z,11.51
2023-03-23T21:02:30.187Z,11.49
2023-03-23T21:05:04.433Z,11.47
2023-03-23T21:07:33.500Z,11.45
2023-03-23T21:10:02.019Z,11.42
2023-03-23T21:12:32.218Z,11.38
2023-03-23T21:15:01.642Z,11.33
2023-03-23T21:17:30.389Z,11.29
2023-03-23T21:20:11.093Z,11.25
2023-03-23T21:22:40.107Z,11.22
2023-03-23T21:25:10.212Z,11.17
2023-03-23T21:27:38.508Z,11.15
2023-03-23T21:30:08.142Z,11.12
2023-03-23T21:32:36.617Z,11.11
2023-03-23T21:35:06.502Z,11.09
2023-03-23T21:37:34.868Z,11.09
2023-03-23T21:40:16.946Z,11.08
2023-03-23T21:42:49.505Z,11.08
2023-03-23T21:45:24.262Z,11.09
2023-03-23T21:48:02.798Z,11.08
2023-03-23T21:50:36.893Z,11.08
2023-03-23T21:53:05.723Z,11.08
2023-03-23T21:55:35.858Z,11.09
2023-03-23T21:58:05.852Z,11.09
2023-03-23T22:00:34.095Z,11.10
2023-03-23T22:03:04.885Z,11.08
2023-03-23T22:05:33.163Z,11.06
2023-03-23T22:08:01.986Z,11.03
2023-03-23T22:10:31.308Z,11.02
2023-03-23T22:13:00.764Z,11.00
2023-03-23T22:15:29.592Z,10.98
2023-03-23T22:17:58.967Z,10.97
2023-03-23T22:20:27.167Z,10.97
2023-03-23T22:22:56.215Z,10.96
2023-03-23T22:25:24.721Z,10.96
2023-03-23T22:27:55.453Z,10.94
2023-03-23T22:30:24.643Z,10.93
2023-03-23T22:32:53.242Z,10.93
2023-03-23T22:35:21.653Z,10.91
2023-03-23T22:37:50.069Z,10.90
2023-03-23T22:40:19.743Z,10.90
2023-03-23T22:42:51.567Z,10.90
2023-03-23T22:45:19.700Z,10.89
2023-03-23T22:47:49.024Z,10.87
2023-03-23T22:50:21.513Z,10.88
2023-03-23T22:52:50.075Z,10.87
2023-03-23T22:55:27.091Z,10.87
2023-03-23T22:57:56.121Z,10.87
2023-03-23T23:00:24.333Z,10.86
2023-03-23T23:02:52.514Z,10.85
2023-03-23T23:05:20.964Z,10.84
2023-03-23T23:07:50.464Z,10.82
2023-03-23T23:10:19.647Z,10.83
2023-03-23T23:12:48.793Z,10.83
2023-03-23T23:15:22.391Z,10.80
2023-03-23T23:17:50.921Z,10.77
2023-03-23T23:20:19.087Z,10.74
2023-03-23T23:22:48.992Z,10.73
2023-03-23T23:25:17.316Z,10.71
2023-03-23T23:27:46.080Z,10.69
2023-03-23T23:30:14.308Z,10.66
2023-03-23T23:32:52.329Z,10.63
2023-03-23T23:35:26.232Z,10.60
2023-03-23T23:37:55.654Z,10.59
2023-03-23T23:40:26.033Z,10.57
2023-03-23T23:42:54.173Z,10.55
2023-03-23T23:45:23.129Z,10.53
2023-03-23T23:47:59.333Z,10.52
2023-03-23T23:50:27.886Z,10.50
2023-03-23T23:52:59.110Z,10.50
2023-03-23T23:55:27.494Z,10.49
2023-03-23T23:57:56.179Z,10.47
